Time;durP1;ratioP1;P1;durP2;ratioP2;P2;SDS_P1;SDS_P2;PMS_P1;PMS_P2;Temp;Humidity;BMP_temperature;BMP_pressure;BME280_temperature;BME280_humidity;BME280_pressure;Samples;Min_cycle;Max_cycle;Signal;HPM_P1;HPM_P2
2023/11/24 00:01:36;;;;;;;8.27;6.20;;;;;;;6.51;66.84;96142.13;5027189;28;20175;-73
2023/11/24 00:04:01;;;;;;;8.70;5.80;;;;;;;6.40;67.54;96136.38;5026962;28;20473;-73
2023/11/24 00:06:27;;;;;;;7.37;5.90;;;;;;;6.49;67.49;96135.25;5026482;28;20249;-72
2023/11/24 00:08:52;;;;;;;10.63;6.77;;;;;;;6.53;67.08;96129.91;5026696;28;20172;-71
2023/11/24 00:11:18;;;;;;;7.10;5.50;;;;;;;6.52;67.21;96122.13;5026623;28;20203;-73
2023/11/24 00:13:43;;;;;;;8.87;6.43;;;;;;;6.57;66.91;96109.81;5026791;28;20249;-71
2023/11/24 00:16:09;;;;;;;10.70;5.77;;;;;;;6.56;67.15;96106.31;5026170;28;20263;-71
2023/11/24 00:18:36;;;;;;;8.77;6.03;;;;;;;6.56;67.16;96102.88;5026545;28;20229;-70
2023/11/24 00:21:06;;;;;;;9.20;5.43;;;;;;;6.54;67.46;96084.69;5030547;28;20975;-72
2023/11/24 00:23:33;;;;;;;6.70;5.13;;;;;;;6.50;67.62;96085.69;5030348;28;21016;-72
2023/11/24 00:25:59;;;;;;;8.80;5.40;;;;;;;6.60;67.22;96075.81;5030331;28;20863;-70
2023/11/24 00:28:24;;;;;;;5.50;4.43;;;;;;;6.65;67.68;96063.47;5030562;28;20410;-72
2023/11/24 00:30:50;;;;;;;7.67;5.60;;;;;;;6.61;67.26;96067.06;5030531;28;20964;-71
2023/11/24 00:33:18;;;;;;;6.00;5.30;;;;;;;6.53;68.19;96067.31;5039110;28;20210;-71
2023/11/24 00:35:45;;;;;;;7.07;4.50;;;;;;;6.61;68.30;96069.66;5050114;28;20204;-72
2023/11/24 00:38:10;;;;;;;7.17;4.80;;;;;;;6.65;67.93;96054.78;5050023;28;20437;-71
2023/11/24 00:40:36;;;;;;;6.70;4.97;;;;;;;6.71;68.61;96052.00;5049974;28;21081;-72
2023/11/24 00:43:02;;;;;;;5.80;4.60;;;;;;;6.64;68.56;96053.94;5049971;28;20666;-70
2023/11/24 00:45:27;;;;;;;7.97;4.40;;;;;;;6.63;68.78;96057.44;5049983;28;20191;-72
2023/11/24 00:47:53;;;;;;;5.57;4.80;;;;;;;6.67;69.14;96060.81;5049606;28;20179;-72
2023/11/24 00:50:18;;;;;;;5.90;5.00;;;;;;;6.68;69.02;96068.56;5050007;28;20638;-72
2023/11/24 00:52:44;;;;;;;7.10;3.40;;;;;;;6.71;69.28;96067.63;5050731;28;20282;-71
2023/11/24 00:55:09;;;;;;;7.33;4.20;;;;;;;6.76;68.67;96068.31;5059072;28;20183;-72
2023/11/24 00:57:36;;;;;;;5.30;3.50;;;;;;;6.87;68.49;96055.75;5066681;28;20213;-72
2023/11/24 01:00:04;;;;;;;4.07;3.53;;;;;;;6.85;68.16;96047.16;5067908;28;20178;-72
2023/11/24 01:02:29;;;;;;;3.90;3.33;;;;;;;6.94;67.96;96044.19;5058561;28;20429;-72
2023/11/24 01:04:55;;;;;;;5.63;4.00;;;;;;;6.81;68.31;96037.72;5050633;28;21107;-72
2023/11/24 01:07:20;;;;;;;5.17;3.10;;;;;;;7.01;67.80;96037.00;5049942;28;20247;-72
2023/11/24 01:09:45;;;;;;;9.93;3.20;;;;;;;6.86;68.17;96027.97;5050059;28;20206;-72
2023/11/24 01:12:11;;;;;;;2.87;2.50;;;;;;;6.91;68.94;96015.59;5049378;28;20173;-72
2023/11/24 01:14:36;;;;;;;3.40;2.73;;;;;;;6.93;68.26;95998.16;5049642;28;20642;-72
2023/11/24 01:17:01;;;;;;;4.87;3.10;;;;;;;6.90;68.56;95990.44;5049263;28;20653;-72
2023/11/24 01:19:27;;;;;;;8.60;2.70;;;;;;;7.02;67.91;95977.88;5049394;28;20170;-71
2023/11/24 01:21:52;;;;;;;3.43;2.37;;;;;;;6.95;68.64;95970.25;5049292;28;20179;-71
2023/11/24 01:24:18;;;;;;;2.93;2.50;;;;;;;6.94;68.68;95970.31;5049040;28;20531;-71
2023/11/24 01:26:43;;;;;;;4.43;2.60;;;;;;;7.02;68.67;95959.59;5048785;28;20217;-71
2023/11/24 01:29:11;;;;;;;3.30;2.53;;;;;;;7.04;68.48;95948.22;5048886;28;20531;-71
2023/11/24 01:31:37;;;;;;;2.50;2.30;;;;;;;7.06;68.97;95951.59;5048658;28;20179;-71
2023/11/24 01:34:03;;;;;;;3.30;2.40;;;;;;;7.08;68.73;95955.00;5048699;28;20426;-71
2023/11/24 01:36:30;;;;;;;2.80;2.20;;;;;;;7.17;68.29;95944.22;5048754;28;20213;-71
2023/11/24 01:38:55;;;;;;;4.47;2.73;;;;;;;7.13;68.66;95953.06;5048843;28;20441;-72
2023/11/24 01:41:20;;;;;;;4.07;2.10;;;;;;;7.03;69.05;95935.22;5048649;28;20413;-71
2023/11/24 01:44:02;;;;;;;3.30;2.90;;;;;;;7.07;68.63;95926.38;5048823;28;20197;-73
2023/11/24 01:46:29;;;;;;;3.13;2.57;;;;;;;7.03;69.14;95930.00;5048570;28;20178;-71
2023/11/24 01:48:56;;;;;;;4.70;2.90;;;;;;;7.09;68.62;95941.06;5049021;28;20830;-72
2023/11/24 01:51:23;;;;;;;2.57;2.33;;;;;;;7.06;69.17;95935.09;5048970;28;20460;-74
2023/11/24 01:53:51;;;;;;;2.60;2.30;;;;;;;7.21;68.97;95939.75;5049098;28;20976;-71
2023/11/24 01:56:17;;;;;;;2.67;2.03;;;;;;;7.16;68.75;95928.63;5048579;28;20436;-71
2023/11/24 01:58:42;;;;;;;3.43;3.00;;;;;;;7.09;69.21;95921.94;5048914;28;20417;-73
2023/11/24 02:01:08;;;;;;;3.60;2.53;;;;;;;7.08;69.71;95922.84;5048895;28;20904;-72
2023/11/24 02:03:34;;;;;;;3.20;2.70;;;;;;;6.96;69.69;95919.78;5048538;28;20199;-72
2023/11/24 02:06:00;;;;;;;7.60;2.80;;;;;;;7.07;69.37;95924.59;5048229;28;20269;-70
2023/11/24 02:08:26;;;;;;;3.30;2.90;;;;;;;7.05;69.38;95912.53;5048659;28;20175;-73
2023/11/24 02:10:51;;;;;;;5.13;3.47;;;;;;;7.06;69.96;95925.50;5048376;28;21038;-69
2023/11/24 02:13:18;;;;;;;4.67;3.03;;;;;;;7.02;69.54;95923.94;5048640;28;20613;-72
2023/11/24 02:15:44;;;;;;;4.53;3.87;;;;;;;7.06;70.12;95919.44;5048091;28;20249;-70
2023/11/24 02:18:09;;;;;;;8.20;3.17;;;;;;;7.07;70.06;95923.75;5048135;28;20425;-70
2023/11/24 02:20:36;;;;;;;5.63;3.53;;;;;;;6.95;70.39;95915.47;5048372;28;20171;-72
2023/11/24 02:23:01;;;;;;;3.97;3.20;;;;;;;7.02;70.64;95916.09;5047792;28;20195;-72
2023/11/24 02:25:27;;;;;;;4.13;3.47;;;;;;;6.93;71.35;95921.66;5047894;28;20414;-72
2023/11/24 02:27:52;;;;;;;5.20;2.73;;;;;;;6.98;72.18;95904.06;5048161;28;20229;-69
2023/11/24 02:30:17;;;;;;;3.80;3.27;;;;;;;6.97;72.86;95905.84;5047933;28;20209;-69
2023/11/24 02:32:43;;;;;;;5.73;3.47;;;;;;;6.81;74.04;95911.69;5047638;28;20534;-72
2023/11/24 02:35:09;;;;;;;6.20;3.57;;;;;;;6.88;73.88;95910.56;5047791;28;20179;-70
2023/11/24 02:37:35;;;;;;;5.63;3.70;;;;;;;6.84;74.19;95904.59;5048367;28;20924;-70
2023/11/24 02:40:03;;;;;;;3.63;3.33;;;;;;;6.79;74.63;95915.19;5047808;28;20174;-70
2023/11/24 02:42:30;;;;;;;4.80;4.13;;;;;;;6.79;75.50;95906.53;5047021;28;20932;-69
2023/11/24 02:44:55;;;;;;;8.60;4.80;;;;;;;6.83;75.12;95897.69;5048398;28;20435;-70
2023/11/24 02:47:21;;;;;;;5.10;3.40;;;;;;;6.75;75.68;95886.66;5048015;28;20823;-70
2023/11/24 02:49:46;;;;;;;4.73;3.50;;;;;;;6.86;75.33;95892.34;5047979;28;20332;-69
2023/11/24 02:52:12;;;;;;;4.93;3.60;;;;;;;6.79;76.02;95877.84;5047775;28;20175;-70
2023/11/24 02:54:38;;;;;;;4.57;2.80;;;;;;;6.78;75.76;95876.16;5047891;28;20171;-69
2023/11/24 02:57:03;;;;;;;5.73;3.73;;;;;;;6.74;76.52;95879.75;5048270;28;20170;-72
2023/11/24 02:59:29;;;;;;;8.03;3.77;;;;;;;6.78;76.65;95869.16;5050184;28;20380;-71
2023/11/24 03:01:55;;;;;;;4.40;3.33;;;;;;;6.83;76.50;95869.00;5050294;28;20590;-70
2023/11/24 03:04:21;;;;;;;4.50;3.50;;;;;;;6.82;76.50;95864.66;5054997;28;20198;-71
2023/11/24 03:06:47;;;;;;;5.37;3.67;;;;;;;6.76;76.63;95865.75;5069768;28;20445;-71
2023/11/24 03:09:14;;;;;;;4.07;3.67;;;;;;;6.75;76.91;95852.78;5052281;28;20416;-70
2023/11/24 03:11:39;;;;;;;7.43;4.93;;;;;;;6.79;76.86;95859.56;5052824;28;20796;-70
2023/11/24 03:14:04;;;;;;;5.37;3.63;;;;;;;6.79;76.47;95852.59;5051704;28;20421;-71
2023/11/24 03:16:33;;;;;;;7.53;3.73;;;;;;;6.81;76.18;95856.94;5058149;28;20211;-71
2023/11/24 03:18:58;;;;;;;3.30;2.93;;;;;;;6.78;77.09;95842.25;5052280;28;20171;-71
2023/11/24 03:21:24;;;;;;;3.77;3.37;;;;;;;6.76;77.14;95851.88;5050675;28;20412;-70
2023/11/24 03:23:49;;;;;;;3.77;3.37;;;;;;;6.67;77.58;95834.81;5049781;28;20205;-70
2023/11/24 03:26:15;;;;;;;4.67;3.67;;;;;;;6.74;76.92;95832.84;5047843;28;20244;-70
2023/11/24 03:28:40;;;;;;;4.10;3.63;;;;;;;6.68;77.40;95835.66;5047914;28;20240;-70
2023/11/24 03:31:07;;;;;;;5.40;4.40;;;;;;;6.66;77.76;95829.66;5047833;28;20214;-70
2023/11/24 03:33:33;;;;;;;4.80;3.60;;;;;;;6.64;78.21;95827.13;5037236;28;21267;-72
2023/11/24 03:35:58;;;;;;;4.53;3.63;;;;;;;6.70;78.14;95823.41;5028496;28;20207;-69
2023/11/24 03:38:24;;;;;;;4.27;3.40;;;;;;;6.75;77.54;95834.53;5030244;28;20434;-70
2023/11/24 03:40:54;;;;;;;4.27;3.80;;;;;;;6.78;77.42;95834.41;5032808;28;20709;-70
2023/11/24 03:43:19;;;;;;;5.00;4.23;;;;;;;6.82;77.75;95835.97;5037671;28;20374;-69
2023/11/24 03:45:44;;;;;;;4.80;3.60;;;;;;;6.81;78.15;95826.47;5038089;28;20496;-70
2023/11/24 03:48:10;;;;;;;6.30;3.60;;;;;;;6.78;78.41;95837.88;5040952;28;20175;-69
2023/11/24 03:50:35;;;;;;;5.37;3.83;;;;;;;6.76;78.28;95831.03;5042900;28;20202;-71
2023/11/24 03:53:02;;;;;;;5.27;4.00;;;;;;;6.73;78.61;95833.72;5041700;28;20218;-71
2023/11/24 03:55:27;;;;;;;5.00;4.33;;;;;;;6.78;78.44;95829.22;5041136;28;20187;-69
2023/11/24 03:57:52;;;;;;;4.17;3.77;;;;;;;6.83;77.69;95822.06;5039452;28;20426;-70
2023/11/24 04:00:18;;;;;;;4.60;3.70;;;;;;;6.81;78.43;95813.44;5034230;28;20171;-70
2023/11/24 04:02:44;;;;;;;4.37;3.97;;;;;;;6.75;78.88;95808.44;5027311;28;20226;-71
2023/11/24 04:05:10;;;;;;;3.80;3.00;;;;;;;6.78;78.42;95806.56;5026781;28;20183;-70
2023/11/24 04:07:38;;;;;;;3.83;3.33;;;;;;;6.74;78.21;95807.59;5026839;28;20238;-71
2023/11/24 04:10:03;;;;;;;5.10;3.80;;;;;;;6.77;78.90;95809.22;5027091;28;20489;-70
2023/11/24 04:12:29;;;;;;;4.60;4.10;;;;;;;6.84;78.50;95809.84;5026802;28;20480;-71
2023/11/24 04:14:54;;;;;;;5.33;3.87;;;;;;;6.82;78.72;95809.06;5026429;28;20191;-70
2023/11/24 04:17:19;;;;;;;4.47;3.97;;;;;;;6.88;77.93;95806.22;5026356;28;20214;-69
2023/11/24 04:19:45;;;;;;;6.57;3.73;;;;;;;6.91;78.07;95806.09;5026882;28;20665;-71
2023/11/24 04:22:10;;;;;;;4.63;3.87;;;;;;;6.86;78.73;95797.59;5026444;28;20290;-70
2023/11/24 04:24:38;;;;;;;4.13;3.57;;;;;;;6.75;78.84;95790.19;5026673;28;20286;-69
2023/11/24 04:27:04;;;;;;;4.10;3.37;;;;;;;6.92;78.13;95786.91;5026449;28;20185;-69
2023/11/24 04:29:29;;;;;;;3.73;3.37;;;;;;;6.87;78.57;95781.03;5026741;28;20418;-71
2023/11/24 04:31:55;;;;;;;8.00;4.90;;;;;;;6.85;78.75;95778.50;5026764;28;20171;-71
2023/11/24 04:34:23;;;;;;;5.20;3.23;;;;;;;6.74;79.01;95773.69;5043750;28;20713;-72
2023/11/24 04:36:49;;;;;;;4.37;3.97;;;;;;;6.94;78.51;95764.22;5046126;28;20175;-71
2023/11/24 04:39:15;;;;;;;4.77;3.50;;;;;;;6.84;78.92;95753.31;5046616;28;20409;-70
2023/11/24 04:41:41;;;;;;;4.17;3.77;;;;;;;6.83;78.71;95741.19;5046259;28;20210;-71
2023/11/24 04:44:06;;;;;;;5.07;3.60;;;;;;;6.96;78.28;95738.94;5046201;28;20468;-71
2023/11/24 04:46:32;;;;;;;3.63;3.30;;;;;;;6.96;78.40;95738.94;5045793;28;20210;-70
2023/11/24 04:49:03;;;;;;;5.77;4.67;;;;;;;6.91;78.39;95740.91;5046368;28;20550;-70
2023/11/24 04:51:31;;;;;;;3.00;2.70;;;;;;;6.97;78.14;95735.44;5045193;28;20461;-70
2023/11/24 04:54:03;;;;;;;3.50;3.20;;;;;;;6.98;78.05;95739.72;5046265;28;20443;-71
2023/11/24 04:56:31;;;;;;;5.80;3.50;;;;;;;6.96;78.00;95718.91;5046241;28;20797;-70
2023/11/24 04:58:57;;;;;;;3.27;2.97;;;;;;;6.88;78.72;95722.78;5047333;28;20516;-70
2023/11/24 05:01:22;;;;;;;5.90;3.00;;;;;;;6.94;78.42;95717.28;5046477;28;20448;-70
2023/11/24 05:03:49;;;;;;;3.10;2.80;;;;;;;6.85;78.67;95718.53;5045886;28;20191;-70
2023/11/24 05:06:15;;;;;;;4.17;3.07;;;;;;;6.82;79.00;95710.81;5048440;28;20171;-70
2023/11/24 05:08:40;;;;;;;5.10;3.07;;;;;;;6.96;79.00;95715.47;5049443;28;20474;-70
2023/11/24 05:11:06;;;;;;;4.17;2.87;;;;;;;6.91;78.80;95717.41;5049245;28;21126;-71
2023/11/24 05:13:31;;;;;;;2.70;2.50;;;;;;;7.00;78.70;95715.28;5049643;28;20248;-70
2023/11/24 05:15:59;;;;;;;2.80;2.20;;;;;;;6.89;79.22;95704.44;5049382;28;20195;-70
2023/11/24 05:18:25;;;;;;;4.60;2.70;;;;;;;7.05;78.71;95698.59;5049822;28;20337;-70
2023/11/24 05:20:51;;;;;;;4.83;2.87;;;;;;;6.98;78.90;95705.81;5049463;28;20438;-71
2023/11/24 05:23:17;;;;;;;3.17;2.80;;;;;;;7.05;78.91;95704.66;5049265;28;20613;-70
2023/11/24 05:25:42;;;;;;;3.37;2.50;;;;;;;7.07;78.73;95705.44;5049156;28;20425;-69
2023/11/24 05:28:08;;;;;;;4.30;2.40;;;;;;;7.00;78.53;95697.03;5049153;28;20598;-70
2023/11/24 05:30:34;;;;;;;2.77;2.37;;;;;;;7.06;78.62;95689.84;5048696;28;20203;-71
2023/11/24 05:33:01;;;;;;;3.30;2.47;;;;;;;7.03;78.99;95692.59;5042459;28;20434;-69
2023/11/24 05:35:27;;;;;;;3.83;2.20;;;;;;;7.02;79.19;95691.75;5029158;28;20438;-70
2023/11/24 05:37:52;;;;;;;2.77;2.37;;;;;;;6.99;79.06;95697.06;5029048;28;20921;-71
2023/11/24 05:40:18;;;;;;;2.40;2.20;;;;;;;6.95;79.05;95683.31;5032893;28;20179;-70
2023/11/24 05:42:46;;;;;;;2.27;2.00;;;;;;;7.03;79.30;95679.56;5040229;28;20198;-69
2023/11/24 05:45:14;;;;;;;3.00;2.43;;;;;;;7.07;79.26;95681.13;5038124;28;20214;-70
2023/11/24 05:47:40;;;;;;;2.50;2.30;;;;;;;7.07;79.40;95670.69;5032340;28;20419;-72
2023/11/24 05:50:06;;;;;;;3.40;2.80;;;;;;;7.02;79.49;95672.66;5031557;28;20454;-71
2023/11/24 05:52:33;;;;;;;3.10;2.80;;;;;;;6.97;79.73;95671.06;5030658;28;20547;-70
2023/11/24 05:54:59;;;;;;;3.00;2.70;;;;;;;7.08;79.81;95669.75;5030730;28;20429;-71
2023/11/24 05:57:24;;;;;;;3.33;3.03;;;;;;;7.08;79.32;95672.38;5040353;28;20482;-70
2023/11/24 05:59:50;;;;;;;3.40;2.70;;;;;;;7.11;79.43;95674.84;5043989;28;20202;-71
2023/11/24 06:02:20;;;;;;;2.43;2.17;;;;;;;7.51;84.39;95668.81;5036264;28;20426;-67
2023/11/24 06:04:47;;;;;;;3.80;2.77;;;;;;;8.62;81.15;95662.00;5029352;28;20835;-70
2023/11/24 06:07:16;;;;;;;4.10;2.77;;;;;;;7.81;76.11;95674.41;5031012;28;20415;-69
2023/11/24 06:09:42;;;;;;;4.00;2.23;;;;;;;7.55;77.95;95677.34;5043937;28;20463;-68
2023/11/24 06:12:09;;;;;;;3.57;2.27;;;;;;;7.39;78.04;95677.13;5035419;28;20524;-67
2023/11/24 06:14:34;;;;;;;3.23;2.30;;;;;;;7.25;79.10;95682.94;5045128;28;20449;-68
2023/11/24 06:17:02;;;;;;;2.70;2.37;;;;;;;7.20;78.92;95683.16;5041583;28;20990;-71
2023/11/24 06:19:27;;;;;;;3.93;2.67;;;;;;;7.29;79.60;95681.91;5043649;28;20253;-67
2023/11/24 06:21:53;;;;;;;2.53;2.33;;;;;;;7.39;79.20;95685.84;5035281;28;20442;-72
2023/11/24 06:24:19;;;;;;;5.77;3.00;;;;;;;7.25;80.79;95726.47;5042812;28;21140;-69
2023/11/24 06:26:45;;;;;;;10.47;3.20;;;;;;;7.24;81.29;95730.00;5025664;28;20894;-70
2023/11/24 06:29:10;;;;;;;2.97;1.87;;;;;;;7.31;79.58;95727.06;5034506;28;20450;-69
2023/11/24 06:31:36;;;;;;;2.53;2.00;;;;;;;7.22;79.04;95727.44;5035836;28;20294;-68
2023/11/24 06:34:01;;;;;;;2.00;1.40;;;;;;;7.20;77.99;95721.44;5040386;28;20213;-70
2023/11/24 06:36:26;;;;;;;6.00;1.50;;;;;;;7.21;77.88;95728.38;5051928;28;20271;-69
2023/11/24 06:38:52;;;;;;;3.80;2.20;;;;;;;7.23;77.68;95723.94;5054976;28;20235;-70
2023/11/24 06:41:17;;;;;;;4.60;1.93;;;;;;;7.29;77.37;95726.28;5051085;28;20175;-71
2023/11/24 06:43:43;;;;;;;4.93;1.63;;;;;;;7.20;76.79;95729.25;5041469;28;20194;-70
2023/11/24 06:46:08;;;;;;;1.90;1.23;;;;;;;7.21;77.57;95717.94;5042484;28;20189;-69
2023/11/24 06:48:35;;;;;;;8.90;2.60;;;;;;;7.18;76.14;95726.72;5048216;28;20183;-68
2023/11/24 06:51:01;;;;;;;3.00;2.20;;;;;;;7.12;75.41;95726.13;5035446;28;20230;-70
2023/11/24 06:53:27;;;;;;;5.23;3.50;;;;;;;7.21;76.08;95725.75;5034817;28;20460;-69
2023/11/24 06:55:52;;;;;;;5.13;2.97;;;;;;;7.19;74.87;95719.75;5030609;28;20437;-68
2023/11/24 06:58:17;;;;;;;3.87;1.30;;;;;;;7.19;74.44;95724.97;5038707;28;20186;-72
2023/11/24 07:00:43;;;;;;;2.90;1.83;;;;;;;7.19;74.02;95717.13;5039839;28;20206;-68
2023/11/24 07:03:08;;;;;;;2.30;1.40;;;;;;;7.11;73.98;95720.06;5040518;28;20191;-68
2023/11/24 07:05:35;;;;;;;3.10;2.30;;;;;;;7.11;73.32;95719.19;5039012;28;20186;-69
2023/11/24 07:08:01;;;;;;;1.70;1.20;;;;;;;6.94;75.43;95723.34;5034521;28;20211;-70
2023/11/24 07:10:27;;;;;;;2.07;1.00;;;;;;;7.11;73.73;95714.84;5032877;28;20473;-69
2023/11/24 07:12:53;;;;;;;3.40;1.60;;;;;;;7.04;73.97;95717.75;5030653;28;20493;-69
2023/11/24 07:15:18;;;;;;;2.80;1.67;;;;;;;7.09;74.13;95710.63;5032358;28;20442;-68
2023/11/24 07:17:44;;;;;;;3.90;1.90;;;;;;;7.53;74.92;95711.31;5032425;28;20244;-69
2023/11/24 07:20:11;;;;;;;19.33;2.53;;;;;;;7.32;73.65;95704.41;5026139;28;20833;-69
2023/11/24 07:22:42;;;;;;;3.43;1.50;;;;;;;7.15;72.59;95705.13;5028615;28;20199;-69
2023/11/24 07:25:08;;;;;;;3.60;1.40;;;;;;;7.10;72.56;95702.69;5031134;28;20437;-70
2023/11/24 07:27:34;;;;;;;1.70;1.00;;;;;;;6.96;73.49;95703.25;5032313;28;20429;-68
2023/11/24 07:29:59;;;;;;;1.73;1.40;;;;;;;7.00;74.48;95697.03;5031257;28;20472;-67
2023/11/24 07:32:28;;;;;;;1.93;1.50;;;;;;;7.15;73.15;95700.75;5036482;28;20229;-68
2023/11/24 07:34:53;;;;;;;2.13;1.20;;;;;;;6.97;73.38;95694.53;5039305;28;20179;-69
2023/11/24 07:37:19;;;;;;;3.83;1.60;;;;;;;6.90;74.10;95694.88;5042194;28;20428;-69
2023/11/24 07:39:45;;;;;;;9.53;2.40;;;;;;;6.92;74.24;95686.06;5043089;28;20197;-68
2023/11/24 07:42:10;;;;;;;5.47;2.10;;;;;;;7.01;73.87;95684.81;5039684;28;20192;-69
2023/11/24 07:44:35;;;;;;;4.60;2.07;;;;;;;7.08;73.71;95680.19;5044415;28;20448;-69
2023/11/24 07:47:01;;;;;;;9.83;2.47;;;;;;;7.14;72.97;95675.59;5031645;28;20243;-67
2023/11/24 07:49:27;;;;;;;2.80;2.13;;;;;;;7.15;72.38;95677.25;5045582;28;20198;-69
2023/11/24 07:51:52;;;;;;;7.63;2.07;;;;;;;6.96;72.69;95677.19;5039519;28;20282;-69
2023/11/24 07:54:18;;;;;;;3.53;1.80;;;;;;;6.93;73.87;95664.28;5036877;28;20277;-68
2023/11/24 07:56:44;;;;;;;2.30;1.40;;;;;;;7.00;72.86;95665.72;5038414;28;20194;-69
2023/11/24 07:59:12;;;;;;;5.53;1.70;;;;;;;6.89;73.53;95654.88;5045266;28;20269;-69
2023/11/24 08:01:38;;;;;;;6.47;3.00;;;;;;;6.93;72.69;95653.00;5041035;28;20178;-67
2023/11/24 08:04:04;;;;;;;2.80;2.10;;;;;;;6.93;73.86;95655.63;5046611;28;20437;-69
2023/11/24 08:06:30;;;;;;;4.30;3.07;;;;;;;6.96;72.89;95642.44;5046572;28;20413;-68
2023/11/24 08:08:56;;;;;;;6.07;3.87;;;;;;;6.95;73.28;95635.53;5041023;28;20226;-69
2023/11/24 08:11:23;;;;;;;10.63;4.10;;;;;;;6.95;73.15;95631.16;5026369;28;20204;-69
2023/11/24 08:13:48;;;;;;;8.63;4.13;;;;;;;6.94;72.90;95631.22;5034847;28;20495;-69
2023/11/24 08:16:14;;;;;;;6.53;5.00;;;;;;;6.98;72.82;95620.59;5042853;28;20979;-69
2023/11/24 08:18:39;;;;;;;10.93;4.10;;;;;;;6.93;74.14;95622.53;5047264;28;20605;-69
2023/11/24 08:21:05;;;;;;;8.27;3.40;;;;;;;6.92;73.60;95620.88;5042335;28;20207;-69
2023/11/24 08:23:30;;;;;;;9.87;3.70;;;;;;;6.93;72.86;95622.53;5044608;28;20196;-69
2023/11/24 08:25:56;;;;;;;5.83;2.17;;;;;;;7.03;72.74;95609.97;5046864;28;20249;-69
2023/11/24 08:28:21;;;;;;;5.53;2.67;;;;;;;6.99;73.78;95611.88;5039261;28;20182;-70
2023/11/24 08:30:48;;;;;;;5.37;2.20;;;;;;;7.09;72.34;95606.25;5048474;28;20198;-69
2023/11/24 08:33:15;;;;;;;3.50;2.07;;;;;;;7.09;72.24;95596.66;5041710;28;20389;-73
2023/11/24 08:35:40;;;;;;;4.67;2.00;;;;;;;7.11;72.52;95596.56;5036815;28;20937;-70
2023/11/24 08:38:06;;;;;;;7.40;2.33;;;;;;;7.08;73.05;95599.31;5046488;28;20421;-69
2023/11/24 08:40:32;;;;;;;7.50;1.93;;;;;;;7.15;72.63;95585.94;5039955;28;20277;-68
2023/11/24 08:42:57;;;;;;;4.97;2.10;;;;;;;7.09;73.15;95577.56;5044224;28;21098;-69
2023/11/24 08:45:23;;;;;;;2.07;1.60;;;;;;;7.28;72.91;95564.56;5048397;28;20233;-71
2023/11/24 08:47:49;;;;;;;5.77;2.67;;;;;;;7.20;72.63;95575.31;5037390;28;20934;-70
2023/11/24 08:50:16;;;;;;;4.50;1.90;;;;;;;7.13;72.99;95582.56;5046084;28;20460;-69
2023/11/24 08:52:42;;;;;;;5.47;1.77;;;;;;;7.07;73.35;95574.16;5031352;28;20198;-69
2023/11/24 08:55:08;;;;;;;3.60;2.37;;;;;;;7.09;73.95;95574.94;5037000;28;20430;-69
2023/11/24 08:57:33;;;;;;;2.63;1.50;;;;;;;7.11;73.04;95579.19;5039450;28;20175;-70
2023/11/24 08:59:58;;;;;;;2.53;1.47;;;;;;;7.14;72.83;95581.66;5035106;28;20484;-70
2023/11/24 09:02:28;;;;;;;2.67;1.80;;;;;;;7.11;73.59;95567.88;5037411;28;20209;-68
2023/11/24 09:04:54;;;;;;;4.23;1.93;;;;;;;7.24;73.25;95558.59;5034341;28;20240;-70
2023/11/24 09:07:19;;;;;;;3.63;1.50;;;;;;;7.25;73.12;95567.28;5032740;28;20434;-71
2023/11/24 09:09:45;;;;;;;11.40;2.30;;;;;;;7.30;72.65;95560.97;5045319;28;20471;-70
2023/11/24 09:12:12;;;;;;;4.97;2.03;;;;;;;7.27;73.41;95563.69;5044496;28;20290;-70
2023/11/24 09:14:40;;;;;;;5.27;2.40;;;;;;;7.37;72.94;95556.28;5048973;28;20311;-70
2023/11/24 09:17:08;;;;;;;4.40;2.67;;;;;;;7.40;73.35;95562.22;5051450;28;20445;-69
2023/11/24 09:19:34;;;;;;;4.33;3.90;;;;;;;7.42;73.74;95568.22;5046923;28;20788;-69
2023/11/24 09:22:03;;;;;;;8.63;2.10;;;;;;;7.40;72.87;95554.41;5051917;28;20434;-70
2023/11/24 09:24:29;;;;;;;4.80;2.00;;;;;;;7.43;73.19;95545.59;5042005;28;20207;-69
2023/11/24 09:26:55;;;;;;;4.73;2.50;;;;;;;7.41;73.18;95544.81;5037178;28;20421;-71
2023/11/24 09:29:21;;;;;;;7.07;2.47;;;;;;;7.77;72.70;95536.19;5043162;28;20182;-71
2023/11/24 09:31:47;;;;;;;3.63;2.40;;;;;;;7.72;72.72;95530.34;5033373;28;20210;-70
2023/11/24 09:34:12;;;;;;;5.63;2.20;;;;;;;7.75;72.19;95525.84;5031480;28;20461;-71
2023/11/24 09:36:41;;;;;;;6.27;2.43;;;;;;;7.71;72.69;95516.44;5042640;28;20171;-70
2023/11/24 09:39:07;;;;;;;7.77;2.43;;;;;;;7.65;72.26;95516.72;5040705;28;20212;-70
2023/11/24 09:41:39;;;;;;;5.27;3.10;;;;;;;7.77;72.06;95523.13;5040159;28;20414;-70
2023/11/24 09:44:12;;;;;;;3.00;2.27;;;;;;;7.75;71.06;95517.16;5041490;28;20475;-71
2023/11/24 09:46:40;;;;;;;5.47;2.63;;;;;;;7.94;71.64;95519.75;5030253;28;20425;-70
2023/11/24 09:49:07;;;;;;;4.87;2.30;;;;;;;7.87;71.39;95515.75;5032383;28;20446;-73
2023/11/24 09:51:35;;;;;;;3.67;2.37;;;;;;;7.87;71.09;95495.69;5038603;28;20577;-72
2023/11/24 09:54:03;;;;;;;7.40;2.37;;;;;;;7.90;70.65;95494.69;5040602;28;20460;-69
2023/11/24 09:56:28;;;;;;;5.97;3.13;;;;;;;7.89;70.28;95487.75;5040487;28;20848;-73
2023/11/24 09:58:54;;;;;;;4.07;2.17;;;;;;;7.79;71.71;95479.50;5034938;28;20437;-73
2023/11/24 10:01:21;;;;;;;18.47;3.70;;;;;;;7.75;70.11;95468.38;5042385;28;20176;-72
2023/11/24 10:03:50;;;;;;;18.20;2.97;;;;;;;7.77;70.93;95463.06;5032699;28;20280;-73
2023/11/24 10:06:16;;;;;;;11.40;3.10;;;;;;;7.92;70.04;95458.88;5039891;28;20457;-72
2023/11/24 10:08:42;;;;;;;10.90;2.90;;;;;;;7.81;70.27;95439.34;5045901;28;20822;-71
2023/11/24 10:11:12;;;;;;;4.30;2.40;;;;;;;7.89;70.02;95446.81;5040770;28;20221;-73
2023/11/24 10:13:41;;;;;;;5.90;3.03;;;;;;;7.74;70.67;95445.78;5038055;28;20521;-72
2023/11/24 10:16:08;;;;;;;11.80;2.50;;;;;;;7.82;69.79;95434.97;5041074;28;20457;-73
2023/11/24 10:18:33;;;;;;;7.43;2.10;;;;;;;7.87;69.29;95419.09;5045640;28;20441;-72
2023/11/24 10:21:00;;;;;;;10.57;3.33;;;;;;;7.80;69.84;95419.38;5037890;28;20440;-72
2023/11/24 10:23:32;;;;;;;5.63;2.70;;;;;;;7.92;69.13;95412.72;5042267;28;20210;-70
2023/11/24 10:25:58;;;;;;;4.10;2.30;;;;;;;7.92;69.36;95409.25;5035826;28;20445;-72
2023/11/24 10:28:26;;;;;;;5.80;3.00;;;;;;;8.00;69.28;95401.88;5032930;28;20445;-75
2023/11/24 10:30:56;;;;;;;5.50;2.57;;;;;;;7.88;67.85;95385.03;5038423;28;20268;-74
2023/11/24 10:33:24;;;;;;;9.60;2.90;;;;;;;7.98;68.28;95385.41;5043564;28;20800;-73
2023/11/24 10:35:53;;;;;;;7.40;2.90;;;;;;;7.93;68.23;95387.41;5040706;28;20429;-73
2023/11/24 10:38:21;;;;;;;5.77;2.60;;;;;;;7.98;67.42;95383.66;5033927;28;20441;-74
2023/11/24 10:40:49;;;;;;;4.57;2.47;;;;;;;8.01;67.52;95388.75;5035783;28;20432;-73
2023/11/24 10:43:17;;;;;;;5.20;2.90;;;;;;;8.10;67.30;95379.56;5034009;28;20546;-74
2023/11/24 10:45:47;;;;;;;10.93;2.70;;;;;;;8.07;67.56;95374.50;5041611;28;20827;-73
2023/11/24 10:48:26;;;;;;;4.80;2.50;;;;;;;7.99;67.89;95358.41;5040967;28;20533;-74
2023/11/24 10:51:38;;;;;;;6.50;2.23;;;;;;;8.02;67.32;95363.44;5035200;28;20502;-72
2023/11/24 10:54:07;;;;;;;4.40;2.00;;;;;;;8.05;67.63;95343.25;5033283;28;20465;-70
2023/11/24 10:56:36;;;;;;;7.10;3.20;;;;;;;8.07;66.13;95377.13;5038889;28;21003;-72
2023/11/24 10:59:05;;;;;;;2.90;1.80;;;;;;;8.04;66.05;95353.78;5037208;28;20932;-72
2023/11/24 11:01:30;;;;;;;11.10;3.10;;;;;;;8.13;66.62;95355.09;5036694;28;20440;-71
2023/11/24 11:03:58;;;;;;;4.03;2.70;;;;;;;8.01;66.88;95349.56;5036617;28;20461;-71
2023/11/24 11:06:38;;;;;;;3.93;2.50;;;;;;;8.03;65.98;95339.00;5031759;28;20201;-70
2023/11/24 11:09:19;;;;;;;5.10;3.23;;;;;;;7.98;67.42;95343.63;5040290;28;20577;-72
2023/11/24 11:12:30;;;;;;;7.57;3.07;;;;;;;8.29;68.98;95345.50;5036364;28;20470;-71
2023/11/24 11:14:58;;;;;;;7.37;2.40;;;;;;;8.19;67.58;95334.69;5044312;28;20992;-72
2023/11/24 11:17:27;;;;;;;8.87;2.90;;;;;;;8.40;67.43;95326.69;5035134;28;20437;-71
2023/11/24 11:20:12;;;;;;;8.23;3.40;;;;;;;8.84;65.76;95326.09;5036209;28;20419;-72
2023/11/24 11:22:40;;;;;;;12.03;3.23;;;;;;;9.27;64.10;95308.03;5039095;28;21752;-72
2023/11/24 11:25:25;;;;;;;8.20;3.00;;;;;;;9.47;63.10;95288.56;5046027;28;20508;-72
2023/11/24 11:27:54;;;;;;;8.27;2.50;;;;;;;9.73;61.18;95294.91;5040142;28;20444;-69
2023/11/24 11:30:27;;;;;;;7.70;2.93;;;;;;;9.49;60.15;95286.69;5047536;28;20464;-73
2023/11/24 11:33:10;;;;;;;3.57;1.90;;;;;;;9.38;60.02;95279.47;5043933;28;20461;-72
2023/11/24 11:35:37;;;;;;;3.50;2.07;;;;;;;9.26;60.20;95288.88;5042703;28;20436;-71
2023/11/24 11:38:03;;;;;;;8.60;2.30;;;;;;;9.23;60.99;95290.78;5032509;28;20442;-71
2023/11/24 11:40:33;;;;;;;8.07;2.33;;;;;;;9.24;60.79;95282.03;5032772;28;20987;-72